TFFRTNCM

Guest
Details From TFFR - Pointe a Pitre Le Raizet
To TNCM - St Maarten - Princess Juliana Intl
Flight Number -
Tags generated
Created
Modified
Stats Distance 140 nm / 260 km
Max Altitude 10,700 ft / 3,261 m
Waypoints 4
Social Downloads 0
Likes 0
Share

Download

Looking for another format? Having issues loading an existing format? Contact us
Advertisement - Login to hide

Notes

Basic altitude profile: - Ascent Rate: 1500ft/min - Ascent Speed: 250kts - Cruise Altitude: 320ft - Cruise Speed: 420kts - Descent Rate: 1500ft/min - Descent Speed: 250kts Options: - Use NATs: yes - Use PACOTS: yes - Use low airways: yes - Use high airways: yes

Route

TFFR PPR A517 BIMBO TNCM

ID Type Via Altitude (ft/m) Position (lat/lon) Dist (leg/tot) Name
O TFFR APT - 0 / 0 16.26531 / -61.53181 - / 0 nm Pointe a Pitre Le Raizet
PPR DME - 100 / 30 16.26519 / -61.54014 0 / 0 nm POINTE A PITRE VOR-DME
BIMBO FIX A517 (AWY-LO) 10,700 / 3,261 16.62667 / -61.96028 32 / 32 nm
O TNCM APT - 0 / 0 18.04089 / -63.10897 107 / 140 nm St Maarten - Princess Juliana Intl

Altitude Profile

Advertisement - Login to hide

TFFR

Details ICAO TFFR (PTP)
Name Pointe-A-Pitre Intl
Region France (Guadeloupe, Martinique, Saint Barthélemy, Saint Martin)
Timezone America/Guadeloupe (UTC-4.0)
Stats Elevation 35 ft / 11 m (AMSL)
Location 16.265500° -61.533000°
Runways 1
Magnetic Variation 14.943° W

METAR

TFFR 111400Z AUTO 09013KT 070V130 9999 FEW024 BKN042 BKN054 28/22 Q1018 TEMPO 10015G25KT

Decode

TAF

TAF TFFR 111100Z 1112/1212 10012KT 9999 SCT025 PROB30 TEMPO 1115/1121 10015G25KT PROB30 TEMPO 1122/1212 4000 SHRA SCT020TCU

Decode

Departure Runways

ID Width Length Bearing (true/mag) Surface Threshold Overrun Markings Lighting
12 148 ft / 45 m 10,673 ft / 3,253 m 100.87° / 115.81° ASPHALT 1,309 ft / 399 m 98 ft / 30 m PREC-APP CENTERLINE EDGE THRESHOLD TDZ REIL-OMNI
30 148 ft / 45 m 10,673 ft / 3,253 m 280.87° / 295.82° ASPHALT 978 ft / 298 m 853 ft / 260 m APP CENTERLINE EDGE THRESHOLD TDZ REIL-OMNI

TNCM

Details ICAO TNCM (SXM)
Name Princess Juliana Intl
Region Caribbean Netherlands, Aruba, Curaçao, Sint Maarten
Timezone Unknown
Stats Elevation 14 ft / 4 m (AMSL)
Location 18.040900° -63.108900°
Runways 1
Magnetic Variation 14.418° W

METAR

TNCM 111400Z 06013KT 030V110 9999 FEW018 30/22 Q1019 NOSIG

Decode

TAF

TNCM 111138Z 1112/1212 08012KT P6SM VCSH SCT020 SCT035

Decode

Destination Runways

ID Width Length Bearing (true/mag) Surface Threshold Overrun Markings Lighting
10 148 ft / 45 m 7,553 ft / 2,302 m 81.44° / 95.86° ASPHALT 331 ft / 101 m 164 ft / 50 m PREC-APP EDGE THRESHOLD REIL-OMNI
28 148 ft / 45 m 7,553 ft / 2,302 m 261.45° / 275.86° ASPHALT 0 ft / 0 m 200 ft / 61 m APP EDGE THRESHOLD

Popular Alternatives